Time;durP1;ratioP1;P1;durP2;ratioP2;P2;SDS_P1;SDS_P2;PMS_P1;PMS_P2;Temp;Humidity;BMP_temperature;BMP_pressure;BME280_temperature;BME280_humidity;BME280_pressure;Samples;Min_cycle;Max_cycle;Signal;HPM_P1;HPM_P2
2023/12/07 00:02:15;;;;;;;16.77;7.95;;;;;;;;;;4849465;29;20453;-72
2023/12/07 00:04:41;;;;;;;13.18;8.65;;;;;;;;;;4844685;29;20060;-73
2023/12/07 00:07:07;;;;;;;12.23;7.60;;;;;;;;;;4815715;29;20077;-72
2023/12/07 00:09:33;;;;;;;12.80;8.45;;;;;;;;;;4841902;29;20133;-72
2023/12/07 00:11:59;;;;;;;13.70;8.48;;;;;;;;;;4827242;29;20133;-73
2023/12/07 00:14:25;;;;;;;17.25;9.05;;;;;;;;;;4832093;29;20055;-73
2023/12/07 00:16:50;;;;;;;13.15;8.25;;;;;;;;;;4829836;29;20064;-72
2023/12/07 00:19:16;;;;;;;13.68;7.88;;;;;;;;;;4832611;29;20053;-73
2023/12/07 00:21:42;;;;;;;14.30;9.18;;;;;;;;;;4830979;29;20057;-73
2023/12/07 00:24:08;;;;;;;18.17;8.32;;;;;;;;;;4828596;29;20152;-72
2023/12/07 00:26:34;;;;;;;17.02;9.50;;;;;;;;;;4819604;29;20049;-72
2023/12/07 00:29:00;;;;;;;15.45;9.27;;;;;;;;;;4815054;29;20807;-73
2023/12/07 00:31:26;;;;;;;15.02;9.10;;;;;;;;;;4842020;29;20461;-72
2023/12/07 00:33:52;;;;;;;13.70;9.27;;;;;;;;;;4830725;29;20049;-73
2023/12/07 00:36:18;;;;;;;16.02;9.80;;;;;;;;;;4829473;29;20050;-72
2023/12/07 00:38:45;;;;;;;15.18;10.02;;;;;;;;;;4832460;29;20481;-72
2023/12/07 00:41:11;;;;;;;14.05;8.95;;;;;;;;;;4840919;29;20056;-73
2023/12/07 00:43:37;;;;;;;17.95;9.82;;;;;;;;;;4816763;29;20121;-72
2023/12/07 00:46:03;;;;;;;12.40;8.45;;;;;;;;;;4838994;29;20488;-73
2023/12/07 00:48:29;;;;;;;16.20;9.40;;;;;;;;;;4826138;29;20046;-73
2023/12/07 00:50:55;;;;;;;13.68;8.50;;;;;;;;;;4827244;29;20493;-72
2023/12/07 00:53:21;;;;;;;14.52;9.27;;;;;;;;;;4822329;29;20080;-72
2023/12/07 00:55:47;;;;;;;13.20;8.38;;;;;;;;;;4818905;29;20054;-72
2023/12/07 00:58:13;;;;;;;16.38;9.25;;;;;;;;;;4813561;29;20514;-72
2023/12/07 01:00:39;;;;;;;14.60;9.45;;;;;;;;;;4821512;29;20046;-72
2023/12/07 01:03:05;;;;;;;15.27;9.07;;;;;;;;;;4828160;29;20052;-73
2023/12/07 01:05:32;;;;;;;17.00;8.73;;;;;;;;;;4821435;29;20094;-73
2023/12/07 01:07:58;;;;;;;18.25;9.15;;;;;;;;;;4835119;29;20057;-72
2023/12/07 01:10:24;;;;;;;14.65;9.65;;;;;;;;;;4825258;29;20055;-73
2023/12/07 01:12:50;;;;;;;16.70;9.95;;;;;;;;;;4816755;29;20057;-72
2023/12/07 01:15:16;;;;;;;14.88;9.50;;;;;;;;;;4802542;29;20053;-73
2023/12/07 01:17:42;;;;;;;12.50;8.18;;;;;;;;;;4822240;29;20537;-73
2023/12/07 01:20:12;;;;;;;15.75;10.05;;;;;;;;;;4839528;29;20199;-72
2023/12/07 01:22:39;;;;;;;15.48;9.23;;;;;;;;;;4823629;29;20130;-72
2023/12/07 01:25:05;;;;;;;16.83;9.15;;;;;;;;;;4827418;29;20060;-73
2023/12/07 01:27:31;;;;;;;13.70;9.48;;;;;;;;;;4846377;29;20050;-73
2023/12/07 01:29:57;;;;;;;17.52;9.57;;;;;;;;;;4826388;29;20052;-73
2023/12/07 01:32:23;;;;;;;15.10;10.45;;;;;;;;;;4828114;29;20046;-73
2023/12/07 01:34:49;;;;;;;15.75;9.90;;;;;;;;;;4851303;29;20049;-73
2023/12/07 01:37:15;;;;;;;15.68;8.90;;;;;;;;;;4826617;29;20053;-72
2023/12/07 01:39:43;;;;;;;14.82;9.48;;;;;;;;;;4846517;29;20101;-73
2023/12/07 01:42:11;;;;;;;14.05;8.82;;;;;;;;;;4831636;29;20050;-72
2023/12/07 01:44:37;;;;;;;13.65;9.05;;;;;;;;;;4827323;29;20474;-72
2023/12/07 01:47:03;;;;;;;15.35;8.35;;;;;;;;;;4828019;29;20085;-73
2023/12/07 01:49:29;;;;;;;12.55;9.18;;;;;;;;;;4829461;29;20056;-73
2023/12/07 01:51:55;;;;;;;13.25;8.40;;;;;;;;;;4829046;29;20109;-72
2023/12/07 01:54:21;;;;;;;15.00;9.68;;;;;;;;;;4820509;29;20425;-72
2023/12/07 01:56:47;;;;;;;12.98;8.52;;;;;;;;;;4823083;29;20053;-72
2023/12/07 01:59:13;;;;;;;17.15;9.13;;;;;;;;;;4821813;29;20087;-72
2023/12/07 02:01:39;;;;;;;16.58;10.70;;;;;;;;;;4824720;29;20154;-72
2023/12/07 02:04:05;;;;;;;16.92;9.70;;;;;;;;;;4832143;29;20055;-73
2023/12/07 02:06:32;;;;;;;15.18;9.18;;;;;;;;;;4833915;29;20060;-73
2023/12/07 02:08:58;;;;;;;11.90;8.38;;;;;;;;;;4829270;29;20806;-73
2023/12/07 02:11:24;;;;;;;17.92;9.90;;;;;;;;;;4842363;29;20112;-73
2023/12/07 02:13:54;;;;;;;14.25;9.13;;;;;;;;;;4830069;29;20081;-73
2023/12/07 02:16:26;;;;;;;15.15;9.02;;;;;;;;;;4823984;29;20472;-72
2023/12/07 02:18:55;;;;;;;14.50;8.82;;;;;;;;;;4847112;29;20497;-72
2023/12/07 02:21:33;;;;;;;17.20;9.88;;;;;;;;;;4824971;29;20344;-72
2023/12/07 02:23:59;;;;;;;12.50;8.90;;;;;;;;;;4816802;29;20049;-72
2023/12/07 02:26:35;;;;;;;16.25;10.27;;;;;;;;;;4830299;29;20662;-72
2023/12/07 02:29:01;;;;;;;15.75;9.18;;;;;;;;;;4828560;29;20471;-72
2023/12/07 02:31:28;;;;;;;17.00;9.05;;;;;;;;;;4844568;29;20041;-72
2023/12/07 02:33:54;;;;;;;14.23;9.63;;;;;;;;;;4846394;29;20473;-72
2023/12/07 02:36:21;;;;;;;13.80;9.25;;;;;;;;;;4824744;29;20049;-72
2023/12/07 02:38:47;;;;;;;17.45;10.05;;;;;;;;;;4843132;29;20421;-72
2023/12/07 02:41:14;;;;;;;19.50;11.13;;;;;;;;;;4830112;29;20370;-72
2023/12/07 02:43:40;;;;;;;16.95;10.13;;;;;;;;;;4827650;29;20054;-72
2023/12/07 02:46:06;;;;;;;17.00;10.50;;;;;;;;;;4823802;29;20049;-72
2023/12/07 02:48:32;;;;;;;20.25;10.95;;;;;;;;;;4843880;29;20053;-72
2023/12/07 02:50:58;;;;;;;17.45;10.68;;;;;;;;;;4820548;29;20045;-72
2023/12/07 02:53:24;;;;;;;15.55;9.73;;;;;;;;;;4828022;29;20045;-72
2023/12/07 02:55:50;;;;;;;15.35;10.35;;;;;;;;;;4816192;29;20358;-72
2023/12/07 02:58:16;;;;;;;17.40;10.35;;;;;;;;;;4832546;29;20493;-72
2023/12/07 03:00:42;;;;;;;20.42;10.52;;;;;;;;;;4828959;29;20045;-72
2023/12/07 03:03:08;;;;;;;17.45;10.85;;;;;;;;;;4830214;29;20056;-72
2023/12/07 03:05:34;;;;;;;15.55;9.45;;;;;;;;;;4820207;29;20049;-72
2023/12/07 03:08:00;;;;;;;20.67;11.25;;;;;;;;;;4813421;29;20045;-72
2023/12/07 03:10:26;;;;;;;16.85;10.80;;;;;;;;;;4826388;29;20494;-72
2023/12/07 03:12:52;;;;;;;19.13;11.35;;;;;;;;;;4824087;29;20583;-72
2023/12/07 03:15:18;;;;;;;21.98;11.25;;;;;;;;;;4846835;29;20056;-72
2023/12/07 03:17:44;;;;;;;20.15;10.63;;;;;;;;;;4832105;29;20062;-72
2023/12/07 03:20:10;;;;;;;23.23;10.90;;;;;;;;;;4831837;29;20072;-72
2023/12/07 03:22:36;;;;;;;17.17;10.27;;;;;;;;;;4817758;29;20133;-72
2023/12/07 03:25:02;;;;;;;19.92;11.90;;;;;;;;;;4825888;29;20517;-72
2023/12/07 03:27:28;;;;;;;20.45;11.60;;;;;;;;;;4847403;29;20508;-72
2023/12/07 03:29:54;;;;;;;17.80;10.32;;;;;;;;;;4828264;29;20053;-72
2023/12/07 03:32:20;;;;;;;14.75;9.45;;;;;;;;;;4821243;29;20083;-72
2023/12/07 03:34:46;;;;;;;22.25;9.23;;;;;;;;;;4809944;29;20058;-72
2023/12/07 03:37:12;;;;;;;26.20;8.15;;;;;;;;;;4820548;29;20065;-72
2023/12/07 03:39:38;;;;;;;13.38;8.63;;;;;;;;;;4828368;29;20448;-72
2023/12/07 03:42:05;;;;;;;13.02;8.50;;;;;;;;;;4825383;29;20041;-72
2023/12/07 03:44:31;;;;;;;14.18;8.88;;;;;;;;;;4847819;29;20041;-72
2023/12/07 03:46:57;;;;;;;18.83;9.20;;;;;;;;;;4831718;29;20165;-72
2023/12/07 03:49:23;;;;;;;17.25;10.43;;;;;;;;;;4848991;29;20545;-72
2023/12/07 03:51:49;;;;;;;16.73;9.77;;;;;;;;;;4824702;29;20476;-72
2023/12/07 03:54:15;;;;;;;17.60;10.23;;;;;;;;;;4827219;29;20050;-72
2023/12/07 03:56:41;;;;;;;18.98;10.15;;;;;;;;;;4840827;29;20053;-72
2023/12/07 03:59:07;;;;;;;18.20;10.23;;;;;;;;;;4830298;29;20053;-72
2023/12/07 04:01:33;;;;;;;17.98;10.52;;;;;;;;;;4829022;29;20072;-72
2023/12/07 04:04:00;;;;;;;20.40;11.27;;;;;;;;;;4841767;29;20046;-72
2023/12/07 04:06:26;;;;;;;16.23;9.98;;;;;;;;;;4828183;29;20541;-73
2023/12/07 04:08:52;;;;;;;17.98;10.52;;;;;;;;;;4838686;29;20490;-72
2023/12/07 04:11:18;;;;;;;18.65;10.25;;;;;;;;;;4827604;29;20530;-72
2023/12/07 04:13:45;;;;;;;22.25;11.00;;;;;;;;;;4839666;29;20481;-73
2023/12/07 04:16:11;;;;;;;18.40;11.05;;;;;;;;;;4825405;29;20201;-73
2023/12/07 04:18:37;;;;;;;20.35;9.60;;;;;;;;;;4846323;29;20077;-73
2023/12/07 04:21:04;;;;;;;15.15;9.90;;;;;;;;;;4812043;29;20054;-72
2023/12/07 04:23:31;;;;;;;16.70;10.25;;;;;;;;;;4822104;29;20102;-72
2023/12/07 04:25:57;;;;;;;18.83;9.55;;;;;;;;;;4823502;29;20070;-73
2023/12/07 04:28:23;;;;;;;16.80;9.48;;;;;;;;;;4821688;29;20091;-72
2023/12/07 04:30:49;;;;;;;15.32;9.18;;;;;;;;;;4846257;29;20061;-73
2023/12/07 04:33:14;;;;;;;14.32;8.70;;;;;;;;;;4822722;29;20092;-73
2023/12/07 04:35:41;;;;;;;15.63;9.77;;;;;;;;;;4813658;29;20093;-72
2023/12/07 04:38:07;;;;;;;16.73;8.95;;;;;;;;;;4812594;29;20053;-72
2023/12/07 04:40:33;;;;;;;15.45;9.13;;;;;;;;;;4829703;29;20080;-72
2023/12/07 04:42:59;;;;;;;13.55;8.75;;;;;;;;;;4827028;29;20049;-72
2023/12/07 04:45:25;;;;;;;16.13;9.60;;;;;;;;;;4828060;29;20053;-73
2023/12/07 04:47:51;;;;;;;15.20;9.38;;;;;;;;;;4832270;29;20061;-73
2023/12/07 04:50:17;;;;;;;17.52;9.48;;;;;;;;;;4832646;29;20515;-73
2023/12/07 04:52:43;;;;;;;14.18;8.25;;;;;;;;;;4828232;29;20089;-73
2023/12/07 04:55:09;;;;;;;13.38;8.85;;;;;;;;;;4818445;29;20242;-73
2023/12/07 04:57:35;;;;;;;13.73;8.20;;;;;;;;;;4830071;29;20056;-72
2023/12/07 05:00:06;;;;;;;13.30;8.20;;;;;;;;;;4819703;29;20413;-72
2023/12/07 05:02:32;;;;;;;15.10;7.78;;;;;;;;;;4831164;29;20045;-72
2023/12/07 05:04:58;;;;;;;12.75;7.97;;;;;;;;;;4835288;29;20563;-73
2023/12/07 05:07:23;;;;;;;12.82;8.45;;;;;;;;;;4829214;29;20054;-72
2023/12/07 05:09:53;;;;;;;16.50;9.38;;;;;;;;;;4834399;29;20049;-72
2023/12/07 05:12:19;;;;;;;14.63;9.30;;;;;;;;;;4817053;29;20439;-72
2023/12/07 05:14:45;;;;;;;13.60;8.73;;;;;;;;;;4811904;29;20110;-72
2023/12/07 05:17:11;;;;;;;15.65;9.20;;;;;;;;;;4843373;29;20061;-72
2023/12/07 05:19:37;;;;;;;16.10;9.82;;;;;;;;;;4830786;29;20054;-72
2023/12/07 05:22:03;;;;;;;17.15;10.02;;;;;;;;;;4850072;29;20045;-72
2023/12/07 05:24:31;;;;;;;16.77;9.80;;;;;;;;;;4832959;29;20056;-73
2023/12/07 05:26:57;;;;;;;14.52;9.32;;;;;;;;;;4828166;29;20057;-73
2023/12/07 05:29:23;;;;;;;15.73;9.55;;;;;;;;;;4832428;29;20053;-73
2023/12/07 05:31:50;;;;;;;15.50;9.15;;;;;;;;;;4831794;29;20054;-73
2023/12/07 05:34:17;;;;;;;16.25;9.32;;;;;;;;;;4824910;29;20404;-73
2023/12/07 05:36:43;;;;;;;32.50;10.50;;;;;;;;;;4844837;29;20129;-72
2023/12/07 05:39:11;;;;;;;58.03;11.73;;;;;;;;;;4832949;29;20068;-72
2023/12/07 05:41:37;;;;;;;20.45;10.15;;;;;;;;;;4831733;29;20068;-73
2023/12/07 05:44:03;;;;;;;35.42;10.48;;;;;;;;;;4848760;29;20060;-72
2023/12/07 05:46:29;;;;;;;15.48;9.40;;;;;;;;;;4848688;29;20049;-73
2023/12/07 05:48:55;;;;;;;18.13;9.27;;;;;;;;;;4847553;29;20049;-73
2023/12/07 05:51:21;;;;;;;14.63;8.13;;;;;;;;;;4852769;29;20041;-72
2023/12/07 05:53:47;;;;;;;12.70;7.85;;;;;;;;;;4832190;29;20045;-73
2023/12/07 05:56:19;;;;;;;13.68;8.05;;;;;;;;;;4830896;29;20572;-73
2023/12/07 05:58:45;;;;;;;15.65;9.15;;;;;;;;;;4850093;29;20053;-73
2023/12/07 06:01:11;;;;;;;15.73;8.68;;;;;;;;;;4845542;29;20050;-73
2023/12/07 06:03:37;;;;;;;15.02;9.68;;;;;;;;;;4810485;29;20073;-73
2023/12/07 06:06:03;;;;;;;19.52;10.02;;;;;;;;;;4841089;29;20130;-73
2023/12/07 06:08:29;;;;;;;17.38;10.65;;;;;;;;;;4850523;29;20049;-73
2023/12/07 06:10:56;;;;;;;16.45;9.40;;;;;;;;;;4827873;29;20046;-73
2023/12/07 06:13:22;;;;;;;18.75;10.82;;;;;;;;;;4826311;29;20088;-73
2023/12/07 06:15:48;;;;;;;19.95;10.85;;;;;;;;;;4831377;29;20469;-73
2023/12/07 06:20:56;;;;;;;17.00;9.85;;;;;;;;;;5270241;23;20478;-73
2023/12/07 06:23:22;;;;;;;16.63;9.93;;;;;;;;;;4829768;29;20058;-73
2023/12/07 06:25:49;;;;;;;17.48;10.02;;;;;;;;;;4828119;29;20109;-73
2023/12/07 06:28:15;;;;;;;19.92;10.18;;;;;;;;;;4847778;29;20888;-73
2023/12/07 06:30:41;;;;;;;18.75;10.20;;;;;;;;;;4827905;29;20057;-73
2023/12/07 06:33:07;;;;;;;16.02;9.57;;;;;;;;;;4829543;29;20213;-73
2023/12/07 06:35:33;;;;;;;17.48;9.77;;;;;;;;;;4825210;29;20172;-72
2023/12/07 06:37:59;;;;;;;18.23;10.40;;;;;;;;;;4840721;29;20061;-73
2023/12/07 06:40:25;;;;;;;16.77;10.02;;;;;;;;;;4827511;29;20056;-73
2023/12/07 06:42:51;;;;;;;14.95;9.20;;;;;;;;;;4841003;29;20050;-72
2023/12/07 06:45:17;;;;;;;15.82;9.75;;;;;;;;;;4832686;29;20053;-72
2023/12/07 06:47:43;;;;;;;14.30;8.55;;;;;;;;;;4829968;29;20064;-73
2023/12/07 06:50:12;;;;;;;17.83;9.35;;;;;;;;;;4831016;29;20072;-73
2023/12/07 06:52:39;;;;;;;17.50;10.70;;;;;;;;;;4846469;29;20054;-73
2023/12/07 06:55:05;;;;;;;15.70;10.00;;;;;;;;;;4832980;29;20053;-73
2023/12/07 06:57:31;;;;;;;16.50;9.52;;;;;;;;;;4830804;29;20045;-73
2023/12/07 06:59:57;;;;;;;14.98;9.55;;;;;;;;;;4833057;29;20560;-73
2023/12/07 07:02:23;;;;;;;17.83;11.02;;;;;;;;;;4834574;29;20153;-73
2023/12/07 07:04:49;;;;;;;18.42;10.50;;;;;;;;;;4827534;29;20053;-73
2023/12/07 07:07:16;;;;;;;19.50;11.98;;;;;;;;;;4831823;29;20140;-73
2023/12/07 07:09:42;;;;;;;17.92;10.40;;;;;;;;;;4826450;29;20064;-73
2023/12/07 07:12:08;;;;;;;21.85;11.95;;;;;;;;;;4831849;29;20105;-73
2023/12/07 07:14:34;;;;;;;21.00;12.15;;;;;;;;;;4851674;29;20052;-73
2023/12/07 07:17:00;;;;;;;22.42;13.48;;;;;;;;;;4831414;29;20049;-73
2023/12/07 07:19:26;;;;;;;16.13;9.38;;;;;;;;;;4834828;29;20416;-73
2023/12/07 07:21:52;;;;;;;18.15;10.68;;;;;;;;;;4834204;29;20145;-73
2023/12/07 07:24:18;;;;;;;20.85;11.10;;;;;;;;;;4833992;29;20500;-70
2023/12/07 07:26:44;;;;;;;20.15;10.85;;;;;;;;;;4830639;29;20062;-71
2023/12/07 07:29:10;;;;;;;18.55;10.93;;;;;;;;;;4830412;29;20041;-71
2023/12/07 07:31:36;;;;;;;15.60;10.50;;;;;;;;;;4834157;29;20457;-71
2023/12/07 07:34:03;;;;;;;17.30;10.63;;;;;;;;;;4833728;29;20080;-71
2023/12/07 07:36:29;;;;;;;20.98;11.10;;;;;;;;;;4833838;29;20496;-70
2023/12/07 07:38:55;;;;;;;28.15;13.50;;;;;;;;;;4833694;29;20053;-71
2023/12/07 07:41:21;;;;;;;20.60;12.07;;;;;;;;;;4833191;29;20432;-71
2023/12/07 07:43:47;;;;;;;25.85;14.05;;;;;;;;;;4832113;29;20045;-71
2023/12/07 07:46:14;;;;;;;20.48;12.50;;;;;;;;;;4817072;29;20053;-71
2023/12/07 07:48:40;;;;;;;20.02;10.95;;;;;;;;;;4831559;29;20053;-70
2023/12/07 07:51:06;;;;;;;24.13;11.98;;;;;;;;;;4817824;29;20418;-71
2023/12/07 07:53:32;;;;;;;19.83;11.63;;;;;;;;;;4832394;29;20049;-71
2023/12/07 07:55:58;;;;;;;21.38;12.23;;;;;;;;;;4827810;29;20053;-71
2023/12/07 07:58:24;;;;;;;26.10;14.40;;;;;;;;;;4848436;29;20543;-72
2023/12/07 08:00:52;;;;;;;25.80;13.63;;;;;;;;;;4838887;29;20041;-72
2023/12/07 08:03:18;;;;;;;27.42;14.88;;;;;;;;;;4848277;29;20177;-73
2023/12/07 08:05:44;;;;;;;28.30;15.32;;;;;;;;;;4848822;29;20071;-72
2023/12/07 08:08:10;;;;;;;23.17;13.15;;;;;;;;;;4835162;29;20203;-71
2023/12/07 08:10:36;;;;;;;24.25;13.75;;;;;;;;;;4833931;29;20072;-71
2023/12/07 08:13:02;;;;;;;25.98;15.38;;;;;;;;;;4831982;29;20568;-71
2023/12/07 08:15:28;;;;;;;24.38;13.68;;;;;;;;;;4849948;29;20057;-71
2023/12/07 08:17:55;;;;;;;31.13;15.63;;;;;;;;;;4837105;29;20045;-72
2023/12/07 08:20:21;;;;;;;33.40;17.25;;;;;;;;;;4838920;29;20104;-72
2023/12/07 08:22:47;;;;;;;28.50;15.82;;;;;;;;;;4845229;29;20049;-72
2023/12/07 08:25:13;;;;;;;28.38;16.42;;;;;;;;;;4821581;29;20049;-72
2023/12/07 08:27:40;;;;;;;27.45;14.80;;;;;;;;;;4825374;29;20053;-71
2023/12/07 08:30:09;;;;;;;28.42;16.10;;;;;;;;;;4838582;29;20124;-71
2023/12/07 08:32:35;;;;;;;31.63;17.38;;;;;;;;;;4834787;29;20050;-71
2023/12/07 08:35:01;;;;;;;30.30;16.17;;;;;;;;;;4850502;29;20045;-71
2023/12/07 08:37:28;;;;;;;28.50;16.17;;;;;;;;;;4835417;29;20486;-70
2023/12/07 08:39:54;;;;;;;31.73;17.55;;;;;;;;;;4835017;29;20088;-71
2023/12/07 08:42:20;;;;;;;31.80;16.20;;;;;;;;;;4837009;29;20049;-71
2023/12/07 08:44:46;;;;;;;30.98;17.15;;;;;;;;;;4832807;29;20049;-71
2023/12/07 08:47:12;;;;;;;26.80;15.50;;;;;;;;;;4834684;29;20056;-71
2023/12/07 08:49:38;;;;;;;30.33;15.48;;;;;;;;;;4830997;29;20444;-71
2023/12/07 08:52:04;;;;;;;32.05;17.30;;;;;;;;;;4826744;29;20283;-71
2023/12/07 08:54:30;;;;;;;28.50;15.48;;;;;;;;;;4852981;29;20041;-71
2023/12/07 08:56:56;;;;;;;28.15;15.73;;;;;;;;;;4853357;29;20563;-72
2023/12/07 08:59:22;;;;;;;29.38;16.55;;;;;;;;;;4834730;29;20124;-71
2023/12/07 09:01:48;;;;;;;26.00;15.10;;;;;;;;;;4851705;29;20491;-72
2023/12/07 09:04:14;;;;;;;27.45;15.40;;;;;;;;;;4842131;29;20045;-72
2023/12/07 09:06:40;;;;;;;27.75;15.18;;;;;;;;;;4826163;29;20053;-72
2023/12/07 09:09:06;;;;;;;27.50;14.98;;;;;;;;;;4839544;29;20056;-71
2023/12/07 09:11:33;;;;;;;26.48;15.57;;;;;;;;;;4854752;29;20608;-74
2023/12/07 09:13:59;;;;;;;29.48;15.32;;;;;;;;;;4825156;29;20045;-72
2023/12/07 09:16:25;;;;;;;25.88;14.52;;;;;;;;;;4837248;29;20086;-73
2023/12/07 09:18:52;;;;;;;27.85;13.85;;;;;;;;;;4835606;29;20053;-69
2023/12/07 09:21:18;;;;;;;25.65;15.18;;;;;;;;;;4841103;29;20450;-71
2023/12/07 09:23:44;;;;;;;29.60;15.02;;;;;;;;;;4812865;29;20493;-70
2023/12/07 09:26:10;;;;;;;23.20;13.98;;;;;;;;;;4836340;29;20053;-71
2023/12/07 09:28:36;;;;;;;21.73;13.07;;;;;;;;;;4818262;29;20053;-71
2023/12/07 09:31:02;;;;;;;26.33;15.65;;;;;;;;;;4838323;29;20068;-70
2023/12/07 09:33:28;;;;;;;31.73;16.20;;;;;;;;;;4836194;29;20050;-71
2023/12/07 09:35:54;;;;;;;28.98;16.17;;;;;;;;;;4852561;29;20428;-71
2023/12/07 09:38:20;;;;;;;31.52;17.65;;;;;;;;;;4835227;29;20061;-70
2023/12/07 09:40:46;;;;;;;28.10;16.50;;;;;;;;;;4836825;29;20053;-69
2023/12/07 09:43:13;;;;;;;26.20;15.60;;;;;;;;;;4835297;29;20052;-71
2023/12/07 09:45:39;;;;;;;25.33;14.35;;;;;;;;;;4849080;29;20538;-70
2023/12/07 09:48:06;;;;;;;31.70;15.95;;;;;;;;;;4829991;29;20046;-70
2023/12/07 09:50:32;;;;;;;28.30;16.80;;;;;;;;;;4836051;29;20401;-71
2023/12/07 09:52:58;;;;;;;33.53;19.02;;;;;;;;;;4852315;29;20053;-71
2023/12/07 09:55:24;;;;;;;29.67;15.77;;;;;;;;;;4833069;29;20050;-72
2023/12/07 09:57:51;;;;;;;32.67;17.20;;;;;;;;;;4834610;29;20132;-71
2023/12/07 10:00:17;;;;;;;32.58;17.10;;;;;;;;;;4851012;29;20065;-70
2023/12/07 10:02:45;;;;;;;39.58;17.42;;;;;;;;;;4835554;29;20534;-71
2023/12/07 10:05:13;;;;;;;33.35;17.63;;;;;;;;;;4834291;29;20132;-71
2023/12/07 10:07:41;;;;;;;58.33;17.50;;;;;;;;;;4833844;29;20061;-71
2023/12/07 10:10:07;;;;;;;58.35;15.80;;;;;;;;;;4834536;29;20059;-70
2023/12/07 10:12:34;;;;;;;72.22;15.50;;;;;;;;;;4835512;29;20100;-70
2023/12/07 10:15:20;;;;;;;76.30;18.60;;;;;;;;;;4833882;29;20050;-70
2023/12/07 10:17:48;;;;;;;57.53;16.58;;;;;;;;;;4829691;29;20041;-69
2023/12/07 10:20:15;;;;;;;50.15;13.20;;;;;;;;;;4823128;29;20368;-71
2023/12/07 10:22:41;;;;;;;83.25;16.65;;;;;;;;;;4850626;29;20049;-71
2023/12/07 10:25:08;;;;;;;72.32;13.15;;;;;;;;;;4850745;29;20448;-71
2023/12/07 10:27:35;;;;;;;79.50;17.17;;;;;;;;;;4850353;29;20128;-72
2023/12/07 10:30:01;;;;;;;99.57;17.08;;;;;;;;;;4850915;29;20629;-71
2023/12/07 10:32:27;;;;;;;62.28;16.55;;;;;;;;;;4850564;29;20105;-70
2023/12/07 10:34:56;;;;;;;65.88;14.93;;;;;;;;;;4848005;29;20503;-69
2023/12/07 10:37:22;;;;;;;75.20;16.85;;;;;;;;;;4846516;29;20397;-71
2023/12/07 10:39:49;;;;;;;115.97;21.00;;;;;;;;;;4846644;29;20470;-70
2023/12/07 10:42:16;;;;;;;25.95;8.38;;;;;;;;;;4850405;29;20397;-70
2023/12/07 10:44:43;;;;;;;66.75;17.10;;;;;;;;;;4849661;29;20419;-69
2023/12/07 10:47:12;;;;;;;85.28;16.92;;;;;;;;;;4832029;29;20351;-70
2023/12/07 10:49:40;;;;;;;91.50;18.27;;;;;;;;;;4851102;29;20127;-69
2023/12/07 10:52:14;;;;;;;67.28;12.80;;;1.30;99.90;;;;;;4849641;29;20140;-70
2023/12/07 10:54:49;;;;;;;95.80;18.60;;;;;;;;;;4849250;29;20105;-69
2023/12/07 10:57:15;;;;;;;67.13;14.95;;;;;;;;;;4849919;29;20060;-75
2023/12/07 10:59:44;;;;;;;97.90;20.48;;;;;;;;;;4851191;29;20077;-72
2023/12/07 11:02:13;;;;;;;99.65;18.63;;;;;;;;;;4832075;29;20454;-70
2023/12/07 11:04:41;;;;;;;98.10;20.42;;;;;;;;;;4851269;29;20084;-71
2023/12/07 11:07:11;;;;;;;61.80;19.45;;;;;;;;;;4848201;29;20053;-71
2023/12/07 11:09:40;;;;;;;76.65;17.80;;;;;;;;;;4846401;29;20495;-70
2023/12/07 11:12:06;;;;;;;85.32;20.60;;;;;;;;;;4845377;29;20328;-71
2023/12/07 11:14:33;;;;;;;66.90;18.27;;;;;;;;;;4851695;29;20575;-71
2023/12/07 11:16:59;;;;;;;66.68;19.23;;;;;;;;;;4834357;29;20503;-71
2023/12/07 11:19:39;;;;;;;78.43;18.00;;;;;;;;;;4844442;29;20560;-71
2023/12/07 11:22:10;;;;;;;82.50;19.33;;;;;;;;;;4852821;29;20523;-72
2023/12/07 11:24:36;;;;;;;81.22;20.45;;;;;;;;;;4847682;29;20060;-71
2023/12/07 11:27:02;;;;;;;72.97;20.50;;;;;;;;;;4845753;29;20058;-71
2023/12/07 11:29:29;;;;;;;65.78;17.95;;;;;;;;;;4846054;29;20059;-71
2023/12/07 11:32:07;;;;;;;62.28;17.15;;;;;;;;;;4842582;29;20080;-71
2023/12/07 11:34:36;;;;;;;62.35;17.35;;;;;;;;;;4848217;29;20464;-71
2023/12/07 11:37:03;;;;;;;91.85;19.80;;;;;;;;;;4846257;29;20133;-71
2023/12/07 11:39:41;;;;;;;96.03;19.60;;;;;;;;;;4855377;29;20049;-71
2023/12/07 11:42:11;;;;;;;80.32;18.58;;;;;;;;;;4844029;29;20174;-70
2023/12/07 11:44:41;;;;;;;57.25;17.15;;;;;;;;;;4833233;29;20501;-72
2023/12/07 11:47:07;;;;;;;62.15;16.38;;;;;;;;;;4846078;29;20100;-70
2023/12/07 11:49:33;;;;;;;39.88;12.15;;;;;;;;;;4850874;29;20045;-70
2023/12/07 11:52:00;;;;;;;82.60;18.45;;;;;;;;;;4850643;29;20041;-70
2023/12/07 11:54:26;;;;;;;55.13;17.42;;;;;;;;;;4847661;29;20057;-70
2023/12/07 11:56:53;;;;;;;64.50;17.02;;;;;;;;;;4847674;29;20101;-71
2023/12/07 11:59:19;;;;;;;62.95;17.42;;;;;;;;;;4847218;29;20563;-71
2023/12/07 12:01:49;;;;;;;54.45;17.75;;;;;;;;;;4853632;29;20526;-70
2023/12/07 12:04:18;;;;;;;77.35;17.70;;;;;;;;;;4833163;29;20053;-71
2023/12/07 12:06:45;;;;;;;60.40;17.15;;;;;;;;;;4848504;29;20121;-71
2023/12/07 12:09:13;;;;;;;86.88;18.05;;;;;;;;;;4847181;29;20049;-71
2023/12/07 12:11:44;;;;;;;82.43;18.85;;;;;;;;;;4854399;29;20057;-70
2023/12/07 12:14:10;;;;;;;69.25;20.08;;;;;;;;;;4850455;29;20435;-71
2023/12/07 12:16:36;;;;;;;58.40;15.60;;;;;;;;;;4849711;29;20060;-71
2023/12/07 12:19:02;;;;;;;53.90;19.25;;;;;;;;;;4848709;29;20053;-71
2023/12/07 12:21:28;;;;;;;60.20;18.70;;;;;;;;;;4848806;29;20427;-71
2023/12/07 12:23:54;;;;;;;50.28;17.17;;;;;;;;;;4846471;29;20080;-71
2023/12/07 12:26:20;;;;;;;66.03;18.83;;;;;;;;;;4833660;29;20045;-70
2023/12/07 12:28:47;;;;;;;50.85;18.58;;;;;;;;;;4849165;29;20050;-71
2023/12/07 12:31:13;;;;;;;63.92;18.60;;;;;;;;;;4852344;29;20132;-71
2023/12/07 12:33:39;;;;;;;56.78;16.52;;;;;;;;;;4832591;29;20045;-71
2023/12/07 12:36:06;;;;;;;57.70;17.98;;;;;;;;;;4852177;29;20441;-71
2023/12/07 12:38:33;;;;;;;55.25;17.35;;;;;;;;;;4852378;29;20078;-71
2023/12/07 12:40:59;;;;;;;51.60;17.77;;;;;;;;;;4850477;29;20064;-71
2023/12/07 12:43:25;;;;;;;52.08;17.10;;;;;;;;;;4851033;29;20403;-71
2023/12/07 12:45:51;;;;;;;41.22;15.65;;;;;;;;;;4848649;29;20164;-71
2023/12/07 12:48:18;;;;;;;48.47;17.48;;;;;;;;;;4847547;29;20508;-71
2023/12/07 12:50:44;;;;;;;46.97;18.63;;;;;;;;;;4847766;29;20092;-71
2023/12/07 12:53:13;;;;;;;44.90;17.13;;;;;;;;;;4827402;29;20161;-71
2023/12/07 12:55:40;;;;;;;47.65;19.58;;;;;;;;;;4844610;29;20063;-70
2023/12/07 12:58:07;;;;;;;52.38;18.77;;;;;;;;;;4844891;29;20049;-71
2023/12/07 13:00:34;;;;;;;56.88;19.25;;;;;;;;;;4843580;29;20491;-71
2023/12/07 13:03:03;;;;;;;37.60;17.08;;;;;;;;;;4847352;29;20160;-71
2023/12/07 13:05:30;;;;;;;51.65;18.55;;;;;;;;;;4847645;29;20116;-71
2023/12/07 13:07:56;;;;;;;46.50;18.70;;;;;;;;;;4843072;29;20508;-71
2023/12/07 13:10:22;;;;;;;54.35;19.98;;;;;;;;;;4845785;29;20060;-71
2023/12/07 13:12:48;;;;;;;54.42;20.05;;;;;;;;;;4850466;29;20041;-71
2023/12/07 13:15:15;;;;;;;41.10;18.65;;;;;;;;;;4854694;29;20053;-70
2023/12/07 13:17:41;;;;;;;45.58;19.08;;;;;;;;;;4847761;29;20159;-71
2023/12/07 13:20:11;;;;;;;36.58;17.13;;;;;;;;;;4847409;29;20064;-71
2023/12/07 13:22:43;;;;;;;43.75;18.00;;;;;;;;;;4832315;29;20056;-71
2023/12/07 13:25:09;;;;;;;44.45;20.17;;;;;;;;;;4848537;29;20057;-71
2023/12/07 13:27:36;;;;;;;46.10;20.13;;;;;;;;;;4849319;29;20467;-71
2023/12/07 13:30:06;;;;;;;44.55;18.40;;;;;;;;;;4847558;29;20041;-71
2023/12/07 13:32:33;;;;;;;51.65;19.45;;;;;;;;;;4853018;29;20044;-71
2023/12/07 13:34:59;;;;;;;48.55;17.92;;;;;;;;;;4847081;29;20081;-71
2023/12/07 13:37:25;;;;;;;51.40;20.33;;;;;;;;;;4847793;29;20049;-71
2023/12/07 13:39:57;;;;;;;40.08;17.50;;;;;;;;;;4845007;29;20367;-71
2023/12/07 13:42:26;;;;;;;45.50;18.98;;;;;;;;;;4848163;29;20057;-71
2023/12/07 13:44:52;;;;;;;43.80;18.67;;;;;;;;;;4847329;29;20060;-70
2023/12/07 13:47:20;;;;;;;47.60;19.63;;;;;;;;;;4853270;29;20540;-70
2023/12/07 13:49:46;;;;;;;51.17;21.17;;;;;;;;;;4849736;29;20049;-72
2023/12/07 13:52:12;;;;;;;52.85;21.00;;;;;;;;;;4846036;29;20042;-72
2023/12/07 13:54:39;;;;;;;46.13;19.13;;;;;;;;;;4841861;29;20049;-73
2023/12/07 13:57:05;;;;;;;55.05;23.10;;;;;;;;;;4847282;29;20133;-71
2023/12/07 13:59:31;;;;;;;51.20;21.67;;;;;;;;;;4843505;29;20054;-72
2023/12/07 14:01:57;;;;;;;56.95;23.95;;;;;;;;;;4843223;29;20053;-72
2023/12/07 14:04:23;;;;;;;44.70;18.45;;;;;;;;;;4845304;29;20073;-72
2023/12/07 14:06:51;;;;;;;48.63;19.92;;;;;;;;;;4844967;29;20542;-73
2023/12/07 14:09:17;;;;;;;38.25;13.52;;;;;;;;;;4845007;29;20519;-71
2023/12/07 14:11:44;;;;;;;50.80;22.02;;;;;;;;;;4846526;29;20081;-72
2023/12/07 14:14:13;;;;;;;46.42;20.75;;;;;;;;;;4846398;29;20476;-72
2023/12/07 14:16:39;;;;;;;54.33;20.70;;;;;;;;;;4846046;29;20057;-71
2023/12/07 14:19:05;;;;;;;53.25;20.10;;;;;;;;;;4841893;29;20663;-71
2023/12/07 14:21:32;;;;;;;51.22;20.92;;;;;;;;;;4844950;29;20145;-71